createdAt,value
2018-06-01T00:01:50.646Z,6.47
2018-06-01T00:04:18.036Z,5.77
2018-06-01T00:06:45.419Z,6.37
2018-06-01T00:09:17.632Z,7.57
2018-06-01T00:11:45.027Z,8.00
2018-06-01T00:14:12.417Z,6.87
2018-06-01T00:16:39.801Z,6.70
2018-06-01T00:19:07.193Z,6.10
2018-06-01T00:21:34.579Z,6.40
2018-06-01T00:24:01.977Z,6.77
2018-06-01T00:26:29.380Z,5.27
2018-06-01T00:28:56.752Z,5.03
2018-06-01T00:31:24.127Z,3.20
2018-06-01T00:33:51.515Z,3.00
2018-06-01T00:36:18.900Z,2.63
2018-06-01T00:38:46.301Z,2.77
2018-06-01T00:41:13.675Z,3.53
2018-06-01T00:43:41.063Z,2.73
2018-06-01T00:46:08.453Z,1.73
2018-06-01T00:48:35.848Z,1.60
2018-06-01T00:51:03.253Z,1.27
2018-06-01T00:53:30.647Z,0.70
2018-06-01T00:55:58.031Z,1.07
2018-06-01T00:58:25.408Z,1.13
2018-06-01T01:00:52.799Z,1.00
2018-06-01T01:03:20.193Z,1.17
2018-06-01T01:05:47.584Z,1.27
2018-06-01T01:08:14.967Z,1.40
2018-06-01T01:10:42.346Z,1.20
2018-06-01T01:13:09.733Z,1.30
2018-06-01T01:15:37.117Z,1.10
2018-06-01T01:18:04.500Z,1.20
2018-06-01T01:20:31.890Z,1.47
2018-06-01T01:22:59.269Z,1.33
2018-06-01T01:25:26.655Z,1.30
2018-06-01T01:27:54.059Z,1.70
2018-06-01T01:30:21.449Z,1.07
2018-06-01T01:32:48.831Z,1.60
2018-06-01T01:35:16.217Z,1.50
2018-06-01T01:37:43.782Z,2.37
2018-06-01T01:40:11.157Z,1.60
2018-06-01T01:42:38.541Z,1.17
2018-06-01T01:45:05.936Z,1.37
2018-06-01T01:47:33.305Z,1.93
2018-06-01T01:50:00.698Z,1.73
2018-06-01T01:52:28.074Z,1.30
2018-06-01T01:54:55.457Z,1.57
2018-06-01T01:57:22.836Z,1.53
2018-06-01T01:59:50.226Z,1.43
2018-06-01T02:02:17.608Z,1.60
2018-06-01T02:04:44.998Z,1.60
2018-06-01T02:07:12.371Z,1.13
2018-06-01T02:09:39.765Z,1.47
2018-06-01T02:12:07.153Z,1.40
2018-06-01T02:14:34.540Z,1.97
2018-06-01T02:17:01.928Z,1.37
2018-06-01T02:19:29.320Z,1.70
2018-06-01T02:21:56.700Z,1.40
2018-06-01T02:24:24.079Z,1.40
2018-06-01T02:26:51.466Z,1.30
2018-06-01T02:29:18.844Z,1.20
2018-06-01T02:31:46.257Z,1.20
2018-06-01T02:34:13.615Z,1.00
2018-06-01T02:36:40.988Z,1.60
2018-06-01T02:39:08.378Z,1.50
2018-06-01T02:41:35.766Z,1.07
2018-06-01T02:44:03.152Z,1.40
2018-06-01T02:46:30.532Z,1.47
2018-06-01T02:48:57.924Z,1.20
2018-06-01T02:51:25.309Z,1.37
2018-06-01T02:53:52.688Z,1.17
2018-06-01T02:56:20.098Z,1.50
2018-06-01T02:58:47.495Z,1.50
2018-06-01T03:01:14.880Z,1.60
2018-06-01T03:03:42.247Z,1.30
2018-06-01T03:06:09.635Z,1.13
2018-06-01T03:08:37.009Z,1.03
2018-06-01T03:11:04.395Z,2.20
2018-06-01T03:13:31.773Z,1.37
2018-06-01T03:15:59.173Z,1.47
2018-06-01T03:18:26.543Z,1.40
2018-06-01T03:20:53.926Z,1.60
2018-06-01T03:23:21.319Z,1.50
2018-06-01T03:25:48.704Z,1.70
2018-06-01T03:28:16.085Z,1.83
2018-06-01T03:30:43.479Z,2.10
2018-06-01T03:33:10.865Z,2.67
2018-06-01T03:35:38.252Z,1.93
2018-06-01T03:38:05.683Z,2.10
2018-06-01T03:40:33.061Z,2.10
2018-06-01T03:43:00.449Z,2.63
2018-06-01T03:45:27.847Z,2.30
2018-06-01T03:47:55.212Z,1.90
2018-06-01T03:50:22.604Z,2.47
2018-06-01T03:52:49.992Z,2.30
2018-06-01T03:55:17.383Z,2.77
2018-06-01T03:57:44.760Z,2.00
2018-06-01T04:00:12.181Z,2.00
2018-06-01T04:02:39.572Z,2.37
2018-06-01T04:05:06.968Z,2.10
2018-06-01T04:07:34.369Z,2.50
2018-06-01T04:10:01.757Z,1.90
2018-06-01T04:12:29.143Z,2.30
2018-06-01T04:14:56.537Z,2.27
2018-06-01T04:17:23.912Z,2.43
2018-06-01T04:19:51.310Z,3.00
2018-06-01T04:22:18.687Z,3.30
2018-06-01T04:24:46.073Z,2.83
2018-06-01T04:27:13.450Z,2.47
2018-06-01T04:29:40.838Z,2.70
2018-06-01T04:32:08.219Z,2.67
2018-06-01T04:34:35.603Z,3.30
2018-06-01T04:37:02.996Z,3.40
2018-06-01T04:42:16.288Z,3.20
2018-06-01T04:44:43.687Z,3.80
2018-06-01T04:47:11.069Z,3.80
2018-06-01T04:49:38.456Z,5.27
2018-06-01T04:52:05.838Z,3.60
2018-06-01T04:54:33.245Z,3.50
2018-06-01T04:57:00.626Z,3.70
2018-06-01T04:59:28.018Z,4.30
2018-06-01T05:01:55.412Z,4.97
2018-06-01T05:04:22.795Z,5.07
2018-06-01T05:06:50.183Z,5.00
2018-06-01T05:09:17.571Z,4.83
2018-06-01T05:11:44.956Z,6.73
2018-06-01T05:14:12.345Z,6.20
2018-06-01T05:16:39.779Z,5.30
2018-06-01T05:19:07.136Z,5.57
2018-06-01T05:21:34.536Z,5.97
2018-06-01T05:24:01.913Z,6.60
2018-06-01T05:26:29.310Z,6.40
2018-06-01T05:28:56.708Z,6.50
2018-06-01T05:31:24.098Z,6.50
2018-06-01T05:33:51.471Z,6.77
2018-06-01T05:36:18.875Z,7.00
2018-06-01T05:38:46.249Z,6.30
2018-06-01T05:41:13.644Z,5.60
2018-06-01T05:43:41.029Z,5.70
2018-06-01T05:46:08.422Z,5.83
2018-06-01T05:48:35.811Z,5.47
2018-06-01T05:51:03.207Z,5.57
2018-06-01T05:53:30.589Z,6.40
2018-06-01T05:55:57.977Z,5.37
2018-06-01T05:58:25.359Z,6.47
2018-06-01T06:00:52.744Z,5.87
2018-06-01T06:03:20.140Z,5.33
2018-06-01T06:05:47.524Z,4.80
2018-06-01T06:08:14.926Z,5.83
2018-06-01T06:10:42.310Z,5.00
2018-06-01T06:13:09.688Z,4.40
2018-06-01T06:15:37.067Z,4.90
2018-06-01T06:18:04.464Z,4.13
2018-06-01T06:20:31.847Z,4.60
2018-06-01T06:22:59.241Z,4.20
2018-06-01T06:25:26.628Z,3.90
2018-06-01T06:27:54.025Z,3.77
2018-06-01T06:30:21.406Z,4.00
2018-06-01T06:32:48.791Z,3.63
2018-06-01T06:35:16.179Z,3.90
2018-06-01T06:37:43.575Z,3.30
2018-06-01T06:40:10.945Z,3.80
2018-06-01T06:42:38.352Z,3.33
2018-06-01T06:45:05.741Z,3.83
2018-06-01T06:47:33.137Z,3.50
2018-06-01T06:50:00.512Z,3.33
2018-06-01T06:52:27.911Z,3.33
2018-06-01T06:54:55.304Z,3.70
2018-06-01T06:57:22.691Z,3.53
2018-06-01T06:59:50.072Z,4.53
2018-06-01T07:02:17.474Z,3.63
2018-06-01T07:04:44.878Z,3.97
2018-06-01T07:07:12.264Z,4.20
2018-06-01T07:09:39.665Z,4.20
2018-06-01T07:12:07.050Z,4.00
2018-06-01T07:14:34.437Z,3.40
2018-06-01T07:17:01.829Z,3.97
2018-06-01T07:19:29.205Z,3.60
2018-06-01T07:21:56.590Z,3.40
2018-06-01T07:24:23.976Z,3.67
2018-06-01T07:26:51.356Z,4.27
2018-06-01T07:29:18.744Z,3.30
2018-06-01T07:31:46.159Z,3.27
2018-06-01T07:34:13.540Z,3.47
2018-06-01T07:36:40.915Z,3.90
2018-06-01T07:39:08.313Z,3.50
2018-06-01T07:41:35.687Z,2.70
2018-06-01T07:44:03.079Z,3.33
2018-06-01T07:46:30.475Z,2.50
2018-06-01T07:48:57.869Z,4.07
2018-06-01T07:51:25.259Z,3.57
2018-06-01T07:53:52.639Z,4.27
2018-06-01T07:56:20.018Z,3.93
2018-06-01T07:58:47.412Z,4.00
2018-06-01T08:01:14.821Z,4.00
2018-06-01T08:03:42.194Z,4.53
2018-06-01T08:06:09.583Z,3.73
2018-06-01T08:08:36.968Z,4.10
2018-06-01T08:11:04.349Z,3.60
2018-06-01T08:13:31.732Z,3.50
2018-06-01T08:15:59.121Z,4.20
2018-06-01T08:18:26.517Z,5.10
2018-06-01T08:20:53.891Z,4.10
2018-06-01T08:23:21.289Z,3.80
2018-06-01T08:25:48.674Z,4.00
2018-06-01T08:28:16.039Z,3.83
2018-06-01T08:30:43.528Z,5.10
2018-06-01T08:33:10.993Z,3.70
2018-06-01T08:35:38.476Z,4.23
2018-06-01T08:38:05.939Z,4.37
2018-06-01T08:40:33.417Z,4.60
2018-06-01T08:43:00.887Z,4.37
2018-06-01T08:45:28.364Z,3.57
2018-06-01T08:47:55.827Z,4.70
2018-06-01T08:50:23.452Z,3.90
2018-06-01T08:52:50.918Z,3.57
2018-06-01T08:55:18.391Z,3.43
2018-06-01T08:57:45.861Z,3.83
2018-06-01T09:00:13.366Z,3.70
2018-06-01T09:02:40.854Z,3.03
2018-06-01T09:05:08.319Z,2.93
2018-06-01T09:07:35.782Z,3.80
2018-06-01T09:10:03.268Z,2.90
2018-06-01T09:12:30.734Z,2.73
2018-06-01T09:14:58.211Z,2.93
2018-06-01T09:17:25.685Z,3.10
2018-06-01T09:19:53.147Z,3.13
2018-06-01T09:22:20.613Z,2.63
2018-06-01T09:24:48.084Z,2.97
2018-06-01T09:27:15.548Z,3.07
2018-06-01T09:29:43.019Z,2.40
2018-06-01T09:32:10.508Z,2.93
2018-06-01T09:34:37.981Z,3.13
2018-06-01T09:37:05.456Z,2.87
2018-06-01T09:39:32.927Z,2.90
2018-06-01T09:42:00.388Z,3.27
2018-06-01T09:44:27.911Z,2.33
2018-06-01T09:46:55.375Z,3.50
2018-06-01T09:49:22.843Z,3.27
2018-06-01T09:51:50.315Z,2.43
2018-06-01T09:54:17.784Z,2.60
2018-06-01T09:56:45.262Z,2.50
2018-06-01T09:59:12.731Z,3.30
2018-06-01T10:01:40.200Z,3.00
2018-06-01T10:04:07.674Z,2.77
2018-06-01T10:06:35.160Z,2.50
2018-06-01T10:09:02.615Z,2.57
2018-06-01T10:11:30.106Z,2.83
2018-06-01T10:13:57.576Z,2.10
2018-06-01T10:16:25.043Z,3.00
2018-06-01T10:18:52.545Z,2.60
2018-06-01T10:21:20.020Z,2.60
2018-06-01T10:23:47.489Z,3.00
2018-06-01T10:26:14.966Z,2.33
2018-06-01T10:28:42.440Z,3.40
2018-06-01T10:31:09.923Z,2.40
2018-06-01T10:33:37.388Z,2.80
2018-06-01T10:36:04.887Z,2.40
2018-06-01T10:38:32.384Z,2.27
2018-06-01T10:40:59.856Z,2.90
2018-06-01T10:43:27.335Z,2.40
2018-06-01T10:45:54.820Z,2.50
2018-06-01T10:48:22.282Z,2.50
2018-06-01T10:50:49.878Z,2.47
2018-06-01T10:53:17.378Z,2.50
2018-06-01T10:55:44.844Z,2.27
2018-06-01T10:58:12.328Z,2.57
2018-06-01T11:00:39.935Z,3.83
2018-06-01T11:03:07.457Z,2.93
2018-06-01T11:05:34.938Z,3.17
2018-06-01T11:08:02.407Z,2.30
2018-06-01T11:10:29.883Z,2.40
2018-06-01T11:12:57.365Z,3.07
2018-06-01T11:15:24.843Z,3.00
2018-06-01T11:17:52.315Z,3.90
2018-06-01T11:20:19.779Z,4.30
2018-06-01T11:22:47.263Z,3.13
2018-06-01T11:25:14.752Z,3.43
2018-06-01T11:27:42.276Z,2.73
2018-06-01T11:30:09.745Z,2.20
2018-06-01T11:32:37.246Z,3.50
2018-06-01T11:35:04.724Z,3.10
2018-06-01T11:37:32.194Z,3.30
2018-06-01T11:39:59.669Z,3.43
2018-06-01T11:42:27.144Z,2.80
2018-06-01T11:44:54.617Z,1.87
2018-06-01T11:47:23.803Z,2.37
2018-06-01T11:49:52.394Z,1.83
2018-06-01T11:52:19.906Z,1.70
2018-06-01T11:54:47.427Z,2.30
2018-06-01T11:57:16.296Z,2.60
2018-06-01T11:59:43.787Z,2.53
2018-06-01T12:02:11.290Z,2.40
2018-06-01T12:04:38.853Z,3.00
2018-06-01T12:07:07.786Z,3.20
2018-06-01T12:09:35.372Z,2.90
2018-06-01T12:12:03.909Z,3.13
2018-06-01T12:14:33.044Z,2.50
2018-06-01T12:17:02.247Z,2.90
2018-06-01T12:19:31.231Z,2.63
2018-06-01T12:21:59.084Z,2.40
2018-06-01T12:24:27.211Z,2.43
2018-06-01T12:26:54.839Z,2.30
2018-06-01T12:29:22.347Z,2.20
2018-06-01T12:31:49.870Z,2.20
2018-06-01T12:34:22.443Z,2.57
2018-06-01T12:36:50.171Z,2.77
2018-06-01T12:39:17.671Z,2.40
2018-06-01T12:41:45.524Z,2.23
2018-06-01T12:44:13.024Z,2.50
2018-06-01T12:46:40.519Z,2.67
2018-06-01T12:49:08.011Z,2.47
2018-06-01T12:51:35.620Z,2.40
2018-06-01T12:54:04.169Z,3.03
2018-06-01T12:56:32.062Z,2.20
2018-06-01T12:58:59.578Z,2.87
2018-06-01T13:01:27.560Z,3.23
2018-06-01T13:03:55.286Z,3.07
2018-06-01T13:06:24.103Z,2.53
2018-06-01T13:08:51.712Z,1.97
2018-06-01T13:11:20.033Z,2.37
2018-06-01T13:13:47.581Z,2.10
2018-06-01T13:16:15.117Z,2.33
2018-06-01T13:18:44.974Z,2.83
2018-06-01T13:21:13.963Z,2.10
2018-06-01T13:23:43.018Z,2.27
2018-06-01T13:26:12.540Z,2.40
2018-06-01T13:28:40.067Z,2.73
2018-06-01T13:31:08.251Z,2.37
2018-06-01T13:33:37.477Z,2.40
2018-06-01T13:36:06.030Z,2.47
2018-06-01T13:38:33.789Z,2.17
2018-06-01T13:41:08.066Z,1.97
2018-06-01T13:43:36.332Z,2.63
2018-06-01T13:46:04.775Z,1.93
2018-06-01T13:48:32.503Z,2.30
2018-06-01T13:51:01.201Z,2.33
2018-06-01T13:53:29.877Z,1.97
2018-06-01T13:55:58.208Z,1.77
2018-06-01T13:58:29.302Z,1.63
2018-06-01T14:00:57.451Z,1.50
2018-06-01T14:03:26.722Z,2.23
2018-06-01T14:05:55.469Z,2.10
2018-06-01T14:08:23.628Z,1.97
2018-06-01T14:10:52.396Z,1.57
2018-06-01T14:13:22.547Z,1.40
2018-06-01T14:15:50.101Z,1.63
2018-06-01T14:18:18.030Z,1.60
2018-06-01T14:20:48.449Z,3.77
2018-06-01T14:23:16.742Z,1.37
2018-06-01T14:25:46.344Z,2.03
2018-06-01T14:28:13.961Z,1.93
2018-06-01T14:30:42.282Z,1.97
2018-06-01T14:33:09.796Z,2.03
2018-06-01T14:35:37.395Z,1.73
2018-06-01T14:38:10.147Z,1.73
2018-06-01T14:40:39.691Z,1.37
2018-06-01T14:43:07.128Z,1.70
2018-06-01T14:45:35.776Z,1.80
2018-06-01T14:48:05.701Z,1.40
2018-06-01T14:50:33.207Z,1.40
2018-06-01T14:53:04.119Z,1.57
2018-06-01T14:55:32.133Z,1.70
2018-06-01T14:58:01.536Z,1.60
2018-06-01T15:00:30.565Z,1.67
2018-06-01T15:02:58.866Z,1.70
2018-06-01T15:05:28.735Z,1.90
2018-06-01T15:07:58.774Z,1.97
2018-06-01T15:10:27.822Z,1.50
2018-06-01T15:12:55.845Z,1.93
2018-06-01T15:15:24.027Z,1.70
2018-06-01T15:17:52.318Z,1.90
2018-06-01T15:20:19.941Z,1.37
2018-06-01T15:22:47.557Z,1.57
2018-06-01T15:25:16.821Z,1.33
2018-06-01T15:27:44.360Z,1.60
2018-06-01T15:30:11.917Z,1.60
2018-06-01T15:32:39.430Z,1.50
2018-06-01T15:35:06.915Z,1.50
2018-06-01T15:37:34.396Z,1.70
2018-06-01T15:40:01.868Z,1.50
2018-06-01T15:42:29.347Z,1.27
2018-06-01T15:44:56.826Z,1.50
2018-06-01T15:47:24.346Z,1.93
2018-06-01T15:49:51.810Z,1.40
2018-06-01T15:52:20.089Z,1.50
2018-06-01T15:54:47.559Z,1.40
2018-06-01T15:57:15.052Z,1.43
2018-06-01T15:59:42.532Z,1.50
2018-06-01T16:02:10.003Z,1.13
2018-06-01T16:04:37.493Z,1.30
2018-06-01T16:07:04.961Z,1.80
2018-06-01T16:09:32.435Z,1.90
2018-06-01T16:11:59.910Z,1.53
2018-06-01T16:14:27.396Z,1.20
2018-06-01T16:16:54.860Z,1.27
2018-06-01T16:19:22.348Z,1.50
2018-06-01T16:21:49.839Z,1.50
2018-06-01T16:24:17.320Z,1.70
2018-06-01T16:26:44.792Z,4.27
2018-06-01T16:29:12.284Z,2.13
2018-06-01T16:31:39.764Z,1.27
2018-06-01T16:34:07.235Z,1.50
2018-06-01T16:36:34.737Z,1.53
2018-06-01T16:39:02.245Z,3.97
2018-06-01T16:41:29.731Z,3.03
2018-06-01T16:43:57.264Z,3.03
2018-06-01T16:46:24.731Z,2.40
2018-06-01T16:48:52.424Z,2.30
2018-06-01T16:51:20.016Z,2.13
2018-06-01T16:53:47.521Z,2.00
2018-06-01T16:56:14.999Z,1.70
2018-06-01T16:58:42.560Z,2.30
2018-06-01T17:01:14.249Z,1.70
2018-06-01T17:03:42.142Z,1.70
2018-06-01T17:06:09.628Z,1.83
2018-06-01T17:08:37.152Z,1.73
2018-06-01T17:11:04.668Z,1.63
2018-06-01T17:13:33.798Z,1.60
2018-06-01T17:16:01.284Z,2.10
2018-06-01T17:18:28.962Z,2.17
2018-06-01T17:20:56.489Z,1.73
2018-06-01T17:23:23.978Z,1.60
2018-06-01T17:25:51.479Z,1.30
2018-06-01T17:28:18.974Z,1.87
2018-06-01T17:30:46.484Z,1.50
2018-06-01T17:33:13.969Z,2.27
2018-06-01T17:35:41.548Z,1.70
2018-06-01T17:38:09.094Z,1.67
2018-06-01T17:40:36.583Z,1.40
2018-06-01T17:43:04.104Z,1.40
2018-06-01T17:45:31.623Z,1.53
2018-06-01T17:47:59.964Z,1.23
2018-06-01T17:50:27.451Z,1.80
2018-06-01T17:52:55.051Z,1.60
2018-06-01T17:55:22.542Z,1.50
2018-06-01T17:57:50.072Z,1.43
2018-06-01T18:00:17.657Z,1.33
2018-06-01T18:02:45.301Z,1.73
2018-06-01T18:05:12.804Z,1.80
2018-06-01T18:07:40.267Z,1.37
2018-06-01T18:10:07.748Z,1.20
2018-06-01T18:12:35.211Z,1.53
2018-06-01T18:15:02.693Z,1.30
2018-06-01T18:17:30.173Z,1.43
2018-06-01T18:19:57.666Z,1.37
2018-06-01T18:22:25.181Z,1.57
2018-06-01T18:24:52.621Z,1.60
2018-06-01T18:27:20.116Z,2.37
2018-06-01T18:29:47.606Z,1.60
2018-06-01T18:32:15.073Z,2.00
2018-06-01T18:34:44.177Z,1.70
2018-06-01T18:37:11.639Z,1.70
2018-06-01T18:39:39.489Z,1.43
2018-06-01T18:42:07.024Z,1.70
2018-06-01T18:44:34.542Z,1.47
2018-06-01T18:47:02.011Z,2.00
2018-06-01T18:49:29.575Z,1.80
2018-06-01T18:51:57.011Z,2.10
2018-06-01T18:54:24.510Z,1.73
2018-06-01T18:56:54.171Z,1.33
2018-06-01T18:59:21.677Z,1.80
2018-06-01T19:01:49.768Z,1.77
2018-06-01T19:04:17.306Z,2.00
2018-06-01T19:06:44.799Z,1.60
2018-06-01T19:09:12.368Z,1.80
2018-06-01T19:11:39.952Z,1.77
2018-06-01T19:14:08.193Z,1.70
2018-06-01T19:16:35.764Z,1.80
2018-06-01T19:19:04.045Z,1.60
2018-06-01T19:21:32.456Z,2.10
2018-06-01T19:24:00.911Z,2.00
2018-06-01T19:26:28.437Z,1.90
2018-06-01T19:28:55.969Z,2.30
2018-06-01T19:31:24.171Z,2.20
2018-06-01T19:33:51.678Z,2.13
2018-06-01T19:36:19.883Z,2.57
2018-06-01T19:38:47.990Z,2.20
2018-06-01T19:41:16.077Z,1.67
2018-06-01T19:43:44.416Z,1.47
2018-06-01T19:46:12.078Z,2.37
2018-06-01T19:48:39.607Z,1.97
2018-06-01T19:51:07.383Z,1.70
2018-06-01T19:53:34.991Z,1.60
2018-06-01T19:56:02.455Z,1.50
2018-06-01T19:58:30.025Z,1.77
2018-06-01T20:00:57.529Z,1.73
2018-06-01T20:03:25.027Z,1.43
2018-06-01T20:05:52.506Z,1.70
2018-06-01T20:08:20.152Z,2.10
2018-06-01T20:10:47.697Z,1.60
2018-06-01T20:13:15.306Z,1.40
2018-06-01T20:15:42.832Z,1.33
2018-06-01T20:18:10.334Z,1.30
2018-06-01T20:20:37.843Z,1.50
2018-06-01T20:23:05.449Z,1.07
2018-06-01T20:25:32.957Z,1.50
2018-06-01T20:28:00.437Z,1.03
2018-06-01T20:30:27.948Z,1.30
2018-06-01T20:32:55.491Z,1.80
2018-06-01T20:35:23.007Z,1.77
2018-06-01T20:37:50.516Z,1.40
2018-06-01T20:40:18.006Z,1.63
2018-06-01T20:42:45.508Z,1.77
2018-06-01T20:45:13.020Z,1.80
2018-06-01T20:47:40.524Z,1.70
2018-06-01T20:50:08.083Z,1.40
2018-06-01T20:52:35.623Z,1.70
2018-06-01T20:55:03.177Z,1.93
2018-06-01T20:57:30.704Z,1.70
2018-06-01T20:59:58.216Z,1.60
2018-06-01T21:02:26.499Z,1.60
2018-06-01T21:04:54.915Z,2.57
2018-06-01T21:07:22.442Z,1.63
2018-06-01T21:09:49.944Z,1.60
2018-06-01T21:12:17.457Z,1.70
2018-06-01T21:14:45.888Z,1.77
2018-06-01T21:17:13.402Z,1.80
2018-06-01T21:19:40.949Z,1.80
2018-06-01T21:22:08.439Z,2.07
2018-06-01T21:24:36.716Z,2.23
2018-06-01T21:27:04.264Z,1.90
2018-06-01T21:29:32.124Z,2.10
2018-06-01T21:31:59.663Z,2.10
2018-06-01T21:34:27.168Z,2.77
2018-06-01T21:36:55.480Z,2.43
2018-06-01T21:39:23.398Z,2.20
2018-06-01T21:41:50.888Z,1.80
2018-06-01T21:44:18.529Z,2.37
2018-06-01T21:46:46.014Z,2.30
2018-06-01T21:49:13.529Z,2.30
2018-06-01T21:51:41.017Z,2.57
2018-06-01T21:54:08.512Z,2.53
2018-06-01T21:56:35.990Z,2.07
2018-06-01T21:59:03.499Z,2.13
2018-06-01T22:01:30.991Z,2.30
2018-06-01T22:03:58.488Z,2.23
2018-06-01T22:06:25.965Z,1.80
2018-06-01T22:08:53.667Z,2.50
2018-06-01T22:11:21.250Z,2.43
2018-06-01T22:13:48.732Z,2.20
2018-06-01T22:16:16.276Z,2.43
2018-06-01T22:18:43.695Z,2.30
2018-06-01T22:21:11.198Z,2.20
2018-06-01T22:23:38.651Z,2.00
2018-06-01T22:26:06.124Z,2.20
2018-06-01T22:28:33.583Z,2.50
2018-06-01T22:31:02.494Z,2.40
2018-06-01T22:33:29.995Z,1.93
2018-06-01T22:35:57.508Z,2.20
2018-06-01T22:38:25.725Z,2.37
2018-06-01T22:40:53.213Z,2.30
2018-06-01T22:43:21.423Z,2.67
2018-06-01T22:45:49.231Z,3.37
2018-06-01T22:48:16.781Z,2.30
2018-06-01T22:50:44.502Z,2.63
2018-06-01T22:53:12.405Z,2.60
2018-06-01T22:55:40.001Z,2.50
2018-06-01T22:58:07.508Z,2.47
2018-06-01T23:00:41.845Z,2.67
2018-06-01T23:03:09.771Z,2.53
2018-06-01T23:05:37.308Z,3.43
2018-06-01T23:08:05.238Z,3.00
2018-06-01T23:10:32.782Z,2.67
2018-06-01T23:13:00.326Z,2.83
2018-06-01T23:15:27.872Z,2.73
2018-06-01T23:17:55.854Z,3.00
2018-06-01T23:20:23.467Z,2.60
2018-06-01T23:22:51.324Z,2.80
2018-06-01T23:25:18.843Z,2.60
2018-06-01T23:27:46.648Z,2.17
2018-06-01T23:30:14.189Z,2.37
2018-06-01T23:32:43.235Z,3.30
2018-06-01T23:35:11.762Z,2.37
2018-06-01T23:37:39.334Z,2.50
2018-06-01T23:40:06.855Z,2.63
2018-06-01T23:42:34.348Z,2.83
2018-06-01T23:45:01.921Z,2.43
2018-06-01T23:47:29.518Z,2.93
2018-06-01T23:49:57.046Z,2.43
2018-06-01T23:52:25.563Z,3.03
2018-06-01T23:54:53.404Z,3.60
2018-06-01T23:57:20.961Z,2.87
2018-06-01T23:59:48.466Z,2.90
